Grieskirchen, Austria
Current Conditions -  °F | °C
As of 7:20 PM on Sunday 23 Nov 2014 (Local Time) from LOWL Reporting Station
Broken Clouds Broken Clouds  
Wind Chill: 38°   Ceiling: 1600
Heat Index: 41°   Visibility: 5mi
Dew Point: 37°   Wind: 5mph
Humidity: 87%   Direction: 80°E
Pressure: 30.27"   Gusts: NA
Location:  48.23°N, 13.83°E
Report Text: LOWL 231720Z 08004KT 060V120 8000 SCT013 BKN016 05/03 Q1025 BECMG BKN012
Loading
Personal Weather Stations






























Interactive Weather Map New forecast layout! Learn more

10-Day Weather Forecast

Advertisements
Track Severe Weather on mobile